sensor_id;sensor_type;location;lat;lon;timestamp;pressure;altitude;pressure_sealevel;temperature;humidity
11987;BME280;6053;51.382;6.768;2023-05-29T00:02:03;101745.47;;;16.26;64.96
11987;BME280;6053;51.382;6.768;2023-05-29T00:04:32;101737.22;;;16.71;63.29
11987;BME280;6053;51.382;6.768;2023-05-29T00:07:01;101747.13;;;15.63;67.05
11987;BME280;6053;51.382;6.768;2023-05-29T00:09:29;101742.13;;;15.30;69.00
11987;BME280;6053;51.382;6.768;2023-05-29T00:11:58;101745.47;;;16.66;64.11
11987;BME280;6053;51.382;6.768;2023-05-29T00:14:29;101748.00;;;16.68;63.59
11987;BME280;6053;51.382;6.768;2023-05-29T00:16:58;101748.78;;;17.09;65.15
11987;BME280;6053;51.382;6.768;2023-05-29T00:19:27;101748.44;;;15.61;66.93
11987;BME280;6053;51.382;6.768;2023-05-29T00:21:56;101746.34;;;14.79;72.23
11987;BME280;6053;51.382;6.768;2023-05-29T00:24:24;101751.19;;;15.37;70.25
11987;BME280;6053;51.382;6.768;2023-05-29T00:26:53;101754.16;;;15.77;67.57
11987;BME280;6053;51.382;6.768;2023-05-29T00:29:22;101748.41;;;14.83;73.33
11987;BME280;6053;51.382;6.768;2023-05-29T00:31:52;101758.91;;;14.81;75.42
11987;BME280;6053;51.382;6.768;2023-05-29T00:34:22;101757.63;;;15.49;72.75
11987;BME280;6053;51.382;6.768;2023-05-29T00:36:52;101758.50;;;15.73;69.04
11987;BME280;6053;51.382;6.768;2023-05-29T00:39:22;101762.22;;;14.90;74.10
11987;BME280;6053;51.382;6.768;2023-05-29T00:41:50;101769.56;;;15.26;72.06
11987;BME280;6053;51.382;6.768;2023-05-29T00:44:19;101767.63;;;14.36;76.32
11987;BME280;6053;51.382;6.768;2023-05-29T00:46:51;101771.81;;;15.18;71.28
11987;BME280;6053;51.382;6.768;2023-05-29T00:49:21;101773.78;;;15.29;70.94
11987;BME280;6053;51.382;6.768;2023-05-29T00:51:52;101779.63;;;15.39;71.14
11987;BME280;6053;51.382;6.768;2023-05-29T00:54:26;101780.91;;;14.83;73.84
11987;BME280;6053;51.382;6.768;2023-05-29T00:56:57;101780.44;;;15.28;71.66
11987;BME280;6053;51.382;6.768;2023-05-29T00:59:28;101786.03;;;15.51;72.06
11987;BME280;6053;51.382;6.768;2023-05-29T01:01:59;101785.81;;;15.53;73.01
11987;BME280;6053;51.382;6.768;2023-05-29T01:04:30;101782.69;;;14.77;73.53
11987;BME280;6053;51.382;6.768;2023-05-29T01:07:00;101789.66;;;14.50;75.93
11987;BME280;6053;51.382;6.768;2023-05-29T01:09:31;101776.41;;;14.33;79.91
11987;BME280;6053;51.382;6.768;2023-05-29T01:12:08;101780.63;;;15.03;76.77
11987;BME280;6053;51.382;6.768;2023-05-29T01:14:45;101786.31;;;14.78;78.36
11987;BME280;6053;51.382;6.768;2023-05-29T01:17:23;101789.09;;;14.78;75.72
11987;BME280;6053;51.382;6.768;2023-05-29T01:20:06;101784.00;;;15.05;77.81
11987;BME280;6053;51.382;6.768;2023-05-29T01:22:54;101783.78;;;15.18;76.72
11987;BME280;6053;51.382;6.768;2023-05-29T01:25:34;101790.13;;;14.47;79.38
11987;BME280;6053;51.382;6.768;2023-05-29T01:28:09;101788.25;;;14.77;81.22
11987;BME280;6053;51.382;6.768;2023-05-29T01:30:40;101793.59;;;14.42;80.76
11987;BME280;6053;51.382;6.768;2023-05-29T01:33:09;101792.28;;;14.08;84.35
11987;BME280;6053;51.382;6.768;2023-05-29T01:35:38;101789.56;;;14.38;81.65
11987;BME280;6053;51.382;6.768;2023-05-29T01:38:07;101803.16;;;14.65;82.41
11987;BME280;6053;51.382;6.768;2023-05-29T01:40:35;101796.91;;;14.32;84.27
11987;BME280;6053;51.382;6.768;2023-05-29T01:43:04;101794.78;;;13.91;89.75
11987;BME280;6053;51.382;6.768;2023-05-29T01:45:36;101805.16;;;14.39;81.78
11987;BME280;6053;51.382;6.768;2023-05-29T01:48:05;101804.13;;;14.15;82.98
11987;BME280;6053;51.382;6.768;2023-05-29T01:50:35;101812.28;;;13.91;81.85
11987;BME280;6053;51.382;6.768;2023-05-29T01:53:03;101816.94;;;14.71;78.78
11987;BME280;6053;51.382;6.768;2023-05-29T01:55:32;101809.88;;;14.20;75.99
11987;BME280;6053;51.382;6.768;2023-05-29T01:58:01;101816.81;;;14.29;80.19
11987;BME280;6053;51.382;6.768;2023-05-29T02:00:30;101820.31;;;14.00;80.00
11987;BME280;6053;51.382;6.768;2023-05-29T02:03:00;101815.69;;;13.94;79.38
11987;BME280;6053;51.382;6.768;2023-05-29T02:05:30;101816.72;;;13.17;80.72
11987;BME280;6053;51.382;6.768;2023-05-29T02:07:58;101813.03;;;14.05;78.60
11987;BME280;6053;51.382;6.768;2023-05-29T02:10:27;101821.41;;;14.91;71.25
11987;BME280;6053;51.382;6.768;2023-05-29T02:12:57;101815.34;;;14.27;77.44
11987;BME280;6053;51.382;6.768;2023-05-29T02:15:25;101829.34;;;13.95;72.88
11987;BME280;6053;51.382;6.768;2023-05-29T02:17:54;101829.50;;;14.00;76.60
11987;BME280;6053;51.382;6.768;2023-05-29T02:20:24;101838.78;;;14.68;75.96
11987;BME280;6053;51.382;6.768;2023-05-29T02:22:53;101832.31;;;13.12;79.18
11987;BME280;6053;51.382;6.768;2023-05-29T02:25:21;101827.66;;;14.31;75.08
11987;BME280;6053;51.382;6.768;2023-05-29T02:27:50;101830.59;;;13.49;75.82
11987;BME280;6053;51.382;6.768;2023-05-29T02:30:18;101831.13;;;12.56;79.95
11987;BME280;6053;51.382;6.768;2023-05-29T02:32:47;101828.66;;;13.25;77.80
11987;BME280;6053;51.382;6.768;2023-05-29T02:35:16;101840.28;;;13.02;78.91
11987;BME280;6053;51.382;6.768;2023-05-29T02:37:49;101835.94;;;14.19;77.67
11987;BME280;6053;51.382;6.768;2023-05-29T02:40:18;101835.63;;;14.46;74.75
11987;BME280;6053;51.382;6.768;2023-05-29T02:42:47;101836.31;;;14.78;68.40
11987;BME280;6053;51.382;6.768;2023-05-29T02:45:16;101851.72;;;13.12;76.23
11987;BME280;6053;51.382;6.768;2023-05-29T02:47:44;101851.22;;;12.83;78.40
11987;BME280;6053;51.382;6.768;2023-05-29T02:50:13;101843.19;;;14.38;75.28
11987;BME280;6053;51.382;6.768;2023-05-29T02:52:42;101843.25;;;14.69;72.91
11987;BME280;6053;51.382;6.768;2023-05-29T02:55:12;101838.94;;;14.54;71.12
11987;BME280;6053;51.382;6.768;2023-05-29T02:57:41;101859.50;;;13.60;75.87
11987;BME280;6053;51.382;6.768;2023-05-29T03:00:11;101838.72;;;13.12;78.60
11987;BME280;6053;51.382;6.768;2023-05-29T03:02:40;101848.41;;;12.90;77.25
11987;BME280;6053;51.382;6.768;2023-05-29T03:05:09;101858.22;;;12.92;80.25
11987;BME280;6053;51.382;6.768;2023-05-29T03:07:37;101867.38;;;12.35;84.95
11987;BME280;6053;51.382;6.768;2023-05-29T03:10:07;101853.88;;;13.03;81.78
11987;BME280;6053;51.382;6.768;2023-05-29T03:12:38;101849.97;;;13.17;79.43
11987;BME280;6053;51.382;6.768;2023-05-29T03:15:09;101851.88;;;12.20;86.74
11987;BME280;6053;51.382;6.768;2023-05-29T03:17:37;101857.25;;;12.67;81.09
11987;BME280;6053;51.382;6.768;2023-05-29T03:20:07;101856.47;;;12.46;83.45
11987;BME280;6053;51.382;6.768;2023-05-29T03:22:36;101854.81;;;12.90;82.93
11987;BME280;6053;51.382;6.768;2023-05-29T03:25:05;101859.63;;;12.63;83.85
11987;BME280;6053;51.382;6.768;2023-05-29T03:27:34;101853.84;;;13.10;78.37
11987;BME280;6053;51.382;6.768;2023-05-29T03:30:05;101861.00;;;14.49;77.03
11987;BME280;6053;51.382;6.768;2023-05-29T03:32:34;101859.66;;;13.72;75.45
11987;BME280;6053;51.382;6.768;2023-05-29T03:35:03;101851.53;;;12.62;80.73
11987;BME280;6053;51.382;6.768;2023-05-29T03:37:31;101853.34;;;13.26;84.16
11987;BME280;6053;51.382;6.768;2023-05-29T03:40:00;101855.59;;;12.59;82.29
11987;BME280;6053;51.382;6.768;2023-05-29T03:42:29;101857.22;;;12.73;85.52
11987;BME280;6053;51.382;6.768;2023-05-29T03:44:58;101846.91;;;12.49;82.90
11987;BME280;6053;51.382;6.768;2023-05-29T03:47:28;101850.84;;;11.68;88.32
11987;BME280;6053;51.382;6.768;2023-05-29T03:49:57;101861.66;;;11.70;89.99
11987;BME280;6053;51.382;6.768;2023-05-29T03:52:26;101857.91;;;11.84;90.30
11987;BME280;6053;51.382;6.768;2023-05-29T03:54:54;101865.63;;;13.68;82.27
11987;BME280;6053;51.382;6.768;2023-05-29T03:57:23;101865.84;;;12.45;85.33
11987;BME280;6053;51.382;6.768;2023-05-29T03:59:52;101869.66;;;13.03;86.02
11987;BME280;6053;51.382;6.768;2023-05-29T04:02:21;101880.34;;;12.99;83.51
11987;BME280;6053;51.382;6.768;2023-05-29T04:04:51;101882.16;;;13.82;78.69
11987;BME280;6053;51.382;6.768;2023-05-29T04:07:20;101886.78;;;13.63;77.36
11987;BME280;6053;51.382;6.768;2023-05-29T04:09:49;101885.13;;;12.79;86.12
11987;BME280;6053;51.382;6.768;2023-05-29T04:12:17;101879.38;;;12.73;85.54
11987;BME280;6053;51.382;6.768;2023-05-29T04:14:46;101885.09;;;12.85;83.79
11987;BME280;6053;51.382;6.768;2023-05-29T04:17:15;101887.53;;;12.62;83.33
11987;BME280;6053;51.382;6.768;2023-05-29T04:19:43;101891.06;;;13.20;82.27
11987;BME280;6053;51.382;6.768;2023-05-29T04:22:13;101885.69;;;13.39;81.05
11987;BME280;6053;51.382;6.768;2023-05-29T04:24:42;101890.97;;;12.37;86.02
11987;BME280;6053;51.382;6.768;2023-05-29T04:27:11;101900.16;;;13.73;76.93
11987;BME280;6053;51.382;6.768;2023-05-29T04:29:40;101888.97;;;12.78;85.52
11987;BME280;6053;51.382;6.768;2023-05-29T04:32:09;101875.28;;;11.58;92.01
11987;BME280;6053;51.382;6.768;2023-05-29T04:34:38;101881.84;;;12.95;87.58
11987;BME280;6053;51.382;6.768;2023-05-29T04:37:07;101881.88;;;11.84;89.49
11987;BME280;6053;51.382;6.768;2023-05-29T04:39:37;101881.88;;;12.17;90.60
11987;BME280;6053;51.382;6.768;2023-05-29T04:42:06;101892.38;;;13.25;82.36
11987;BME280;6053;51.382;6.768;2023-05-29T04:44:34;101889.97;;;13.35;82.45
11987;BME280;6053;51.382;6.768;2023-05-29T04:47:03;101896.06;;;14.25;75.05
11987;BME280;6053;51.382;6.768;2023-05-29T04:49:33;101893.03;;;15.19;74.20
11987;BME280;6053;51.382;6.768;2023-05-29T04:52:05;101908.22;;;14.68;73.84
11987;BME280;6053;51.382;6.768;2023-05-29T04:54:34;101910.19;;;13.99;77.09
11987;BME280;6053;51.382;6.768;2023-05-29T04:57:04;101916.34;;;14.44;75.73
11987;BME280;6053;51.382;6.768;2023-05-29T04:59:33;101921.28;;;12.90;82.44
11987;BME280;6053;51.382;6.768;2023-05-29T05:02:02;101919.63;;;13.91;82.09
11987;BME280;6053;51.382;6.768;2023-05-29T05:04:31;101928.75;;;14.23;77.91
11987;BME280;6053;51.382;6.768;2023-05-29T05:06:59;101932.69;;;13.84;76.72
11987;BME280;6053;51.382;6.768;2023-05-29T05:09:29;101921.16;;;14.12;76.00
11987;BME280;6053;51.382;6.768;2023-05-29T05:11:58;101926.59;;;13.75;79.85
11987;BME280;6053;51.382;6.768;2023-05-29T05:14:28;101926.59;;;14.87;74.18
11987;BME280;6053;51.382;6.768;2023-05-29T05:16:57;101927.34;;;15.13;71.75
11987;BME280;6053;51.382;6.768;2023-05-29T05:19:26;101926.53;;;14.07;76.40
11987;BME280;6053;51.382;6.768;2023-05-29T05:21:54;101933.91;;;15.00;70.63
11987;BME280;6053;51.382;6.768;2023-05-29T05:24:23;101946.25;;;14.67;70.86
11987;BME280;6053;51.382;6.768;2023-05-29T05:26:51;101931.06;;;14.88;71.48
11987;BME280;6053;51.382;6.768;2023-05-29T05:29:20;101925.97;;;16.17;66.55
11987;BME280;6053;51.382;6.768;2023-05-29T05:31:50;101926.88;;;15.16;70.66
11987;BME280;6053;51.382;6.768;2023-05-29T05:34:19;101919.41;;;14.98;70.25
11987;BME280;6053;51.382;6.768;2023-05-29T05:36:48;101921.53;;;14.41;72.69
11987;BME280;6053;51.382;6.768;2023-05-29T05:39:17;101926.44;;;15.00;70.72
11987;BME280;6053;51.382;6.768;2023-05-29T05:41:46;101926.94;;;16.82;65.97
11987;BME280;6053;51.382;6.768;2023-05-29T05:44:15;101929.84;;;15.63;68.24
11987;BME280;6053;51.382;6.768;2023-05-29T05:46:43;101927.84;;;15.51;68.46
11987;BME280;6053;51.382;6.768;2023-05-29T05:49:13;101931.97;;;14.82;70.97
11987;BME280;6053;51.382;6.768;2023-05-29T05:51:42;101934.53;;;15.92;65.62
11987;BME280;6053;51.382;6.768;2023-05-29T05:54:11;101936.94;;;15.77;68.70
11987;BME280;6053;51.382;6.768;2023-05-29T05:56:39;101926.81;;;16.18;66.19
11987;BME280;6053;51.382;6.768;2023-05-29T05:59:08;101921.72;;;15.61;68.04
11987;BME280;6053;51.382;6.768;2023-05-29T06:01:36;101923.72;;;15.42;69.74
11987;BME280;6053;51.382;6.768;2023-05-29T06:04:05;101918.31;;;15.59;67.21
11987;BME280;6053;51.382;6.768;2023-05-29T06:06:35;101918.75;;;15.14;70.01
11987;BME280;6053;51.382;6.768;2023-05-29T06:09:04;101923.31;;;16.46;65.06
11987;BME280;6053;51.382;6.768;2023-05-29T06:11:33;101933.09;;;16.72;62.14
11987;BME280;6053;51.382;6.768;2023-05-29T06:14:01;101927.13;;;14.96;69.38
11987;BME280;6053;51.382;6.768;2023-05-29T06:16:30;101938.22;;;16.52;63.05
11987;BME280;6053;51.382;6.768;2023-05-29T06:18:58;101940.03;;;15.69;64.14
11987;BME280;6053;51.382;6.768;2023-05-29T06:21:28;101941.31;;;17.02;62.24
11987;BME280;6053;51.382;6.768;2023-05-29T06:23:57;101950.69;;;16.61;61.55
11987;BME280;6053;51.382;6.768;2023-05-29T06:26:26;101938.97;;;15.21;65.45
11987;BME280;6053;51.382;6.768;2023-05-29T06:28:55;101952.75;;;16.42;63.49
11987;BME280;6053;51.382;6.768;2023-05-29T06:31:24;101948.94;;;16.13;62.03
11987;BME280;6053;51.382;6.768;2023-05-29T06:33:52;101956.72;;;16.69;61.20
11987;BME280;6053;51.382;6.768;2023-05-29T06:36:21;101950.44;;;17.26;58.47
11987;BME280;6053;51.382;6.768;2023-05-29T06:38:50;101939.84;;;17.40;57.62
11987;BME280;6053;51.382;6.768;2023-05-29T06:41:20;101944.56;;;17.39;56.41
11987;BME280;6053;51.382;6.768;2023-05-29T06:43:49;101945.22;;;18.37;54.09
11987;BME280;6053;51.382;6.768;2023-05-29T06:46:19;101949.56;;;19.28;52.59
11987;BME280;6053;51.382;6.768;2023-05-29T06:48:47;101950.78;;;16.42;59.81
11987;BME280;6053;51.382;6.768;2023-05-29T06:51:17;101940.75;;;16.65;62.11
11987;BME280;6053;51.382;6.768;2023-05-29T06:53:46;101929.34;;;18.04;57.67
11987;BME280;6053;51.382;6.768;2023-05-29T06:56:14;101935.44;;;18.01;57.12
11987;BME280;6053;51.382;6.768;2023-05-29T06:58:44;101934.16;;;17.92;56.24
11987;BME280;6053;51.382;6.768;2023-05-29T07:01:13;101937.94;;;17.29;59.15
11987;BME280;6053;51.382;6.768;2023-05-29T07:03:44;101940.75;;;17.29;58.38
11987;BME280;6053;51.382;6.768;2023-05-29T07:06:12;101946.31;;;16.18;62.04
11987;BME280;6053;51.382;6.768;2023-05-29T07:08:41;101944.91;;;17.14;59.20
11987;BME280;6053;51.382;6.768;2023-05-29T07:11:09;101948.97;;;16.95;60.57
11987;BME280;6053;51.382;6.768;2023-05-29T07:13:38;101953.69;;;17.92;57.69
11987;BME280;6053;51.382;6.768;2023-05-29T07:16:08;101953.84;;;17.57;56.92
11987;BME280;6053;51.382;6.768;2023-05-29T07:18:51;101947.31;;;17.80;58.37
11987;BME280;6053;51.382;6.768;2023-05-29T07:21:19;101957.97;;;17.83;57.05
11987;BME280;6053;51.382;6.768;2023-05-29T07:23:48;101955.59;;;17.46;59.14
11987;BME280;6053;51.382;6.768;2023-05-29T07:26:17;101956.97;;;16.80;60.69
11987;BME280;6053;51.382;6.768;2023-05-29T07:28:46;101952.00;;;16.58;61.00
11987;BME280;6053;51.382;6.768;2023-05-29T07:31:15;101965.19;;;18.12;55.88
11987;BME280;6053;51.382;6.768;2023-05-29T07:33:44;101971.59;;;18.80;54.00
11987;BME280;6053;51.382;6.768;2023-05-29T07:36:14;101964.75;;;17.87;56.23
11987;BME280;6053;51.382;6.768;2023-05-29T07:38:43;101968.22;;;18.78;54.09
11987;BME280;6053;51.382;6.768;2023-05-29T07:41:12;101973.22;;;19.15;53.02
11987;BME280;6053;51.382;6.768;2023-05-29T07:43:43;101970.97;;;18.95;52.28
11987;BME280;6053;51.382;6.768;2023-05-29T07:46:19;101970.75;;;18.63;53.75
11987;BME280;6053;51.382;6.768;2023-05-29T07:48:48;101974.75;;;18.17;55.80
11987;BME280;6053;51.382;6.768;2023-05-29T07:51:16;101973.31;;;17.40;58.14
11987;BME280;6053;51.382;6.768;2023-05-29T07:53:45;101970.78;;;18.46;55.81
11987;BME280;6053;51.382;6.768;2023-05-29T07:56:14;101979.59;;;17.76;56.76
11987;BME280;6053;51.382;6.768;2023-05-29T07:58:44;101981.00;;;19.13;54.77
11987;BME280;6053;51.382;6.768;2023-05-29T08:01:13;101988.13;;;17.98;55.32
11987;BME280;6053;51.382;6.768;2023-05-29T08:03:43;101987.78;;;18.61;56.24
11987;BME280;6053;51.382;6.768;2023-05-29T08:06:12;101987.13;;;18.37;55.21
11987;BME280;6053;51.382;6.768;2023-05-29T08:08:41;101990.47;;;17.89;56.67
11987;BME280;6053;51.382;6.768;2023-05-29T08:11:10;101985.59;;;18.47;54.52
11987;BME280;6053;51.382;6.768;2023-05-29T08:13:39;101987.00;;;17.82;56.67
11987;BME280;6053;51.382;6.768;2023-05-29T08:16:08;101989.91;;;18.21;56.46
11987;BME280;6053;51.382;6.768;2023-05-29T08:18:37;101997.78;;;18.41;55.03
11987;BME280;6053;51.382;6.768;2023-05-29T08:21:07;101984.66;;;18.07;56.48
11987;BME280;6053;51.382;6.768;2023-05-29T08:23:36;101990.84;;;18.26;55.39
11987;BME280;6053;51.382;6.768;2023-05-29T08:26:05;101993.91;;;18.97;55.34
11987;BME280;6053;51.382;6.768;2023-05-29T08:28:33;101992.09;;;18.86;54.36
11987;BME280;6053;51.382;6.768;2023-05-29T08:31:02;101996.22;;;19.44;52.63
11987;BME280;6053;51.382;6.768;2023-05-29T08:33:30;101988.41;;;19.46;53.21
11987;BME280;6053;51.382;6.768;2023-05-29T08:36:00;101987.13;;;20.08;50.61
11987;BME280;6053;51.382;6.768;2023-05-29T08:38:30;101992.28;;;18.79;54.92
11987;BME280;6053;51.382;6.768;2023-05-29T08:40:59;101991.16;;;18.80;55.47
11987;BME280;6053;51.382;6.768;2023-05-29T08:43:31;101993.53;;;19.11;53.76
11987;BME280;6053;51.382;6.768;2023-05-29T08:46:01;101990.84;;;18.60;55.95
11987;BME280;6053;51.382;6.768;2023-05-29T08:48:31;101986.53;;;20.70;50.56
11987;BME280;6053;51.382;6.768;2023-05-29T08:51:02;101989.63;;;20.37;51.69
11987;BME280;6053;51.382;6.768;2023-05-29T08:53:34;101992.38;;;19.99;51.13
11987;BME280;6053;51.382;6.768;2023-05-29T08:56:03;101997.63;;;20.23;49.04
11987;BME280;6053;51.382;6.768;2023-05-29T08:58:32;101997.91;;;19.23;52.73
11987;BME280;6053;51.382;6.768;2023-05-29T09:01:02;102007.28;;;19.12;53.65
11987;BME280;6053;51.382;6.768;2023-05-29T09:03:31;102001.22;;;19.91;52.57
11987;BME280;6053;51.382;6.768;2023-05-29T09:06:00;102006.59;;;18.16;55.51
11987;BME280;6053;51.382;6.768;2023-05-29T09:08:30;101997.25;;;19.60;54.11
11987;BME280;6053;51.382;6.768;2023-05-29T09:11:01;102004.44;;;18.90;54.72
11987;BME280;6053;51.382;6.768;2023-05-29T09:13:30;102017.34;;;18.41;57.09
11987;BME280;6053;51.382;6.768;2023-05-29T09:15:59;102006.63;;;19.05;55.45
11987;BME280;6053;51.382;6.768;2023-05-29T09:18:30;102014.16;;;19.92;52.39
11987;BME280;6053;51.382;6.768;2023-05-29T09:20:59;102012.56;;;19.52;52.43
11987;BME280;6053;51.382;6.768;2023-05-29T09:23:29;102013.91;;;19.50;53.20
11987;BME280;6053;51.382;6.768;2023-05-29T09:25:58;102002.84;;;19.82;52.72
11987;BME280;6053;51.382;6.768;2023-05-29T09:28:30;102014.50;;;20.01;51.04
11987;BME280;6053;51.382;6.768;2023-05-29T09:30:59;102014.84;;;19.55;52.43
11987;BME280;6053;51.382;6.768;2023-05-29T09:33:28;102009.81;;;18.92;54.90
11987;BME280;6053;51.382;6.768;2023-05-29T09:36:00;102020.88;;;19.25;52.40
11987;BME280;6053;51.382;6.768;2023-05-29T09:38:30;102022.13;;;19.57;52.05
11987;BME280;6053;51.382;6.768;2023-05-29T09:41:26;102021.09;;;20.17;50.02
11987;BME280;6053;51.382;6.768;2023-05-29T09:43:56;102019.50;;;20.26;51.60
11987;BME280;6053;51.382;6.768;2023-05-29T09:46:28;102023.59;;;18.98;53.57
11987;BME280;6053;51.382;6.768;2023-05-29T09:49:02;102008.66;;;20.02;52.04
11987;BME280;6053;51.382;6.768;2023-05-29T09:51:31;102020.16;;;20.38;51.21
11987;BME280;6053;51.382;6.768;2023-05-29T09:53:59;102011.53;;;18.98;55.73
11987;BME280;6053;51.382;6.768;2023-05-29T09:56:42;102015.63;;;20.64;49.03
11987;BME280;6053;51.382;6.768;2023-05-29T09:59:15;102025.53;;;20.45;50.22
11987;BME280;6053;51.382;6.768;2023-05-29T10:01:47;102021.28;;;19.56;53.46
11987;BME280;6053;51.382;6.768;2023-05-29T10:04:18;102026.28;;;20.35;50.78
11987;BME280;6053;51.382;6.768;2023-05-29T10:06:48;102018.25;;;19.85;51.41
11987;BME280;6053;51.382;6.768;2023-05-29T10:09:19;102021.06;;;20.44;50.49
11987;BME280;6053;51.382;6.768;2023-05-29T10:11:50;102006.88;;;20.98;50.22
11987;BME280;6053;51.382;6.768;2023-05-29T10:14:23;102014.88;;;20.42;49.68
11987;BME280;6053;51.382;6.768;2023-05-29T10:16:55;102014.09;;;20.84;49.04
11987;BME280;6053;51.382;6.768;2023-05-29T10:19:29;102005.72;;;21.36;48.76
11987;BME280;6053;51.382;6.768;2023-05-29T10:21:58;102009.16;;;21.59;47.94
11987;BME280;6053;51.382;6.768;2023-05-29T10:24:31;102000.47;;;21.08;48.37
11987;BME280;6053;51.382;6.768;2023-05-29T10:27:00;102007.41;;;20.95;48.24
11987;BME280;6053;51.382;6.768;2023-05-29T10:29:34;101993.00;;;20.07;50.16
11987;BME280;6053;51.382;6.768;2023-05-29T10:32:17;102006.94;;;21.03;49.22
11987;BME280;6053;51.382;6.768;2023-05-29T10:34:54;101987.41;;;19.80;50.39
11987;BME280;6053;51.382;6.768;2023-05-29T10:37:33;102000.59;;;21.28;49.17
11987;BME280;6053;51.382;6.768;2023-05-29T10:40:05;101991.25;;;20.65;50.32
11987;BME280;6053;51.382;6.768;2023-05-29T10:42:46;101997.25;;;20.14;49.88
11987;BME280;6053;51.382;6.768;2023-05-29T10:45:49;101996.88;;;21.17;49.24
11987;BME280;6053;51.382;6.768;2023-05-29T10:48:41;101998.06;;;21.27;48.05
11987;BME280;6053;51.382;6.768;2023-05-29T10:51:25;101995.53;;;22.54;45.14
11987;BME280;6053;51.382;6.768;2023-05-29T10:53:54;101990.88;;;20.51;49.14
11987;BME280;6053;51.382;6.768;2023-05-29T10:56:27;101983.09;;;21.89;46.52
11987;BME280;6053;51.382;6.768;2023-05-29T10:58:59;101990.91;;;21.56;47.54
11987;BME280;6053;51.382;6.768;2023-05-29T11:01:31;101985.06;;;21.78;47.28
11987;BME280;6053;51.382;6.768;2023-05-29T11:04:25;101976.25;;;21.44;46.37
11987;BME280;6053;51.382;6.768;2023-05-29T11:06:54;101982.75;;;21.55;46.20
11987;BME280;6053;51.382;6.768;2023-05-29T11:09:28;101970.91;;;21.37;47.27
11987;BME280;6053;51.382;6.768;2023-05-29T11:12:16;101973.69;;;20.80;48.83
11987;BME280;6053;51.382;6.768;2023-05-29T11:14:55;101980.06;;;21.17;47.25
11987;BME280;6053;51.382;6.768;2023-05-29T11:17:42;101974.75;;;20.04;48.58
11987;BME280;6053;51.382;6.768;2023-05-29T11:20:33;101969.72;;;20.38;49.10
11987;BME280;6053;51.382;6.768;2023-05-29T11:23:05;101963.97;;;20.55;48.33
11987;BME280;6053;51.382;6.768;2023-05-29T11:25:36;101975.16;;;21.55;47.16
11987;BME280;6053;51.382;6.768;2023-05-29T11:28:08;101982.78;;;21.02;49.55
11987;BME280;6053;51.382;6.768;2023-05-29T11:30:42;101969.47;;;20.82;49.07
11987;BME280;6053;51.382;6.768;2023-05-29T11:33:22;101970.72;;;21.75;47.20
11987;BME280;6053;51.382;6.768;2023-05-29T11:35:57;101979.47;;;22.09;45.11
11987;BME280;6053;51.382;6.768;2023-05-29T11:38:26;101971.97;;;21.31;48.51
11987;BME280;6053;51.382;6.768;2023-05-29T11:40:55;101970.91;;;21.37;48.99
11987;BME280;6053;51.382;6.768;2023-05-29T11:43:25;101965.41;;;21.83;46.97
11987;BME280;6053;51.382;6.768;2023-05-29T11:45:54;101966.78;;;20.55;48.10
11987;BME280;6053;51.382;6.768;2023-05-29T11:48:24;101970.69;;;20.97;46.46
11987;BME280;6053;51.382;6.768;2023-05-29T11:50:53;101964.78;;;20.93;48.48
11987;BME280;6053;51.382;6.768;2023-05-29T11:53:22;101956.97;;;20.20;50.24
11987;BME280;6053;51.382;6.768;2023-05-29T11:55:51;101961.66;;;21.47;47.03
11987;BME280;6053;51.382;6.768;2023-05-29T11:58:21;101960.09;;;20.24;48.04
11987;BME280;6053;51.382;6.768;2023-05-29T12:00:50;101964.97;;;21.34;47.95
11987;BME280;6053;51.382;6.768;2023-05-29T12:03:18;101965.38;;;21.63;47.44
11987;BME280;6053;51.382;6.768;2023-05-29T12:05:49;101957.91;;;20.68;47.31
11987;BME280;6053;51.382;6.768;2023-05-29T12:08:23;101963.28;;;21.33;47.64
11987;BME280;6053;51.382;6.768;2023-05-29T12:10:53;101958.44;;;21.13;48.40
11987;BME280;6053;51.382;6.768;2023-05-29T12:13:22;101964.97;;;20.76;48.10
11987;BME280;6053;51.382;6.768;2023-05-29T12:15:53;101968.03;;;21.27;48.90
11987;BME280;6053;51.382;6.768;2023-05-29T12:18:23;101966.88;;;21.18;48.57
11987;BME280;6053;51.382;6.768;2023-05-29T12:20:57;101963.66;;;21.62;46.55
11987;BME280;6053;51.382;6.768;2023-05-29T12:23:27;101973.41;;;20.12;48.99
11987;BME280;6053;51.382;6.768;2023-05-29T12:25:56;101965.56;;;21.46;47.86
11987;BME280;6053;51.382;6.768;2023-05-29T12:28:26;101954.84;;;20.70;49.16
11987;BME280;6053;51.382;6.768;2023-05-29T12:30:59;101965.94;;;21.60;47.94
11987;BME280;6053;51.382;6.768;2023-05-29T12:33:29;101958.34;;;21.76;45.95
11987;BME280;6053;51.382;6.768;2023-05-29T12:36:09;101956.72;;;22.05;45.34
11987;BME280;6053;51.382;6.768;2023-05-29T12:38:47;101971.31;;;22.02;46.23
11987;BME280;6053;51.382;6.768;2023-05-29T12:41:23;101963.16;;;21.85;47.52
11987;BME280;6053;51.382;6.768;2023-05-29T12:43:54;101962.06;;;20.61;48.80
11987;BME280;6053;51.382;6.768;2023-05-29T12:46:24;101967.13;;;21.11;47.66
11987;BME280;6053;51.382;6.768;2023-05-29T12:48:54;101975.88;;;21.25;46.98
11987;BME280;6053;51.382;6.768;2023-05-29T12:51:25;101973.47;;;20.91;49.87
11987;BME280;6053;51.382;6.768;2023-05-29T12:53:54;101971.53;;;21.02;47.39
11987;BME280;6053;51.382;6.768;2023-05-29T12:56:25;101969.84;;;21.69;46.87
11987;BME280;6053;51.382;6.768;2023-05-29T12:58:54;101967.84;;;21.44;47.45
11987;BME280;6053;51.382;6.768;2023-05-29T13:01:23;101960.28;;;20.49;49.23
11987;BME280;6053;51.382;6.768;2023-05-29T13:03:51;101966.13;;;20.80;48.42
11987;BME280;6053;51.382;6.768;2023-05-29T13:06:20;101967.41;;;21.10;48.99
11987;BME280;6053;51.382;6.768;2023-05-29T13:08:50;101974.09;;;21.04;47.33
11987;BME280;6053;51.382;6.768;2023-05-29T13:11:19;101976.88;;;21.56;46.51
11987;BME280;6053;51.382;6.768;2023-05-29T13:13:49;101974.94;;;21.04;47.01
11987;BME280;6053;51.382;6.768;2023-05-29T13:16:18;101967.38;;;21.05;48.41
11987;BME280;6053;51.382;6.768;2023-05-29T13:18:46;101977.75;;;21.04;47.63